»·PEaware :: N17MA KSBA-KBUR

N17MA :: KSBA-KBUR

FLIGHT INFORMATION

Flight Status: Arrived
Operator: Privately registered:
United States
More flights under this callsign
Pilot: Diego M. (28112)
Aircraft: CESSNA 172 SKYHAWK
(C172)
More flights by this aircraft type
Origin: KSBA Santa Barbara Mun
United States
Destination: KBUR Bob Hope-Burbank
United States
More flights between these airports :: More routes between these airports
Route: +
File this flight plan on PilotEdge
Remarks: CAT8
Altitude:
(Current/Filed)
5,500ft
Speed:
(Current/Filed)
0kts
Departed: 26-Apr-20 04:27 PM
Arrived: 26-Apr-20 05:05 PM
Distance/Time
Traveled:
75nm/0:38
Distance/Time
To Go:
Arrived

Flight Plot

Page will automatically refresh every two minutes.


Map Options




Map Legend


Flown Route
Filed Route
Departure Airport
Arrival Airport
Navaid (VOR, NDB)
Fix

Horizontal Profiles

Position Reports

Time Latitude Longitude Heading Altitude Ground
Speed
26-Apr-20 16:20 34.432007 -119.838111 73 17ft 0kts
26-Apr-20 16:21 34.432007 -119.838111 73 17ft 0kts
26-Apr-20 16:22 34.431921 -119.837947 156 17ft 3kts
26-Apr-20 16:23 34.431029 -119.838594 247 17ft 9kts
26-Apr-20 16:24 34.430658 -119.839812 246 17ft 0kts
26-Apr-20 16:25 34.430658 -119.839812 246 17ft 0kts
26-Apr-20 16:26 34.422421 -119.837826 164 134ft 72kts
26-Apr-20 16:27 34.402495 -119.832666 166 686ft 75kts
26-Apr-20 16:28 34.381108 -119.826891 166 1083ft 77kts
26-Apr-20 16:29 34.370303 -119.806455 98 1436ft 100kts
26-Apr-20 16:30 34.367722 -119.769680 98 1982ft 113kts
26-Apr-20 16:31 34.365400 -119.732791 98 2757ft 108kts
26-Apr-20 16:32 34.363728 -119.695769 97 3457ft 110kts
26-Apr-20 16:33 34.362293 -119.658693 97 4152ft 110kts
26-Apr-20 16:34 34.360865 -119.621444 97 4854ft 111kts
26-Apr-20 16:35 34.359107 -119.582363 97 5449ft 120kts
26-Apr-20 16:36 34.356515 -119.537629 97 5528ft 141kts
26-Apr-20 16:37 34.353321 -119.489438 96 5534ft 144kts
26-Apr-20 16:38 34.352083 -119.440375 93 5542ft 146kts
26-Apr-20 16:39 34.350398 -119.391084 93 5552ft 146kts
26-Apr-20 16:40 34.348160 -119.342297 93 5560ft 147kts
26-Apr-20 16:41 34.345665 -119.298004 93 5555ft 147kts
26-Apr-20 16:42 34.342465 -119.248552 93 5551ft 147kts
26-Apr-20 16:43 34.334868 -119.199866 101 5546ft 147kts
26-Apr-20 16:44 34.327078 -119.151069 101 5543ft 147kts
26-Apr-20 16:45 34.319580 -119.102280 101 5541ft 147kts
26-Apr-20 16:46 34.312355 -119.053399 101 5539ft 147kts
26-Apr-20 16:47 34.305406 -119.004699 101 5538ft 146kts
26-Apr-20 16:48 34.298572 -118.955959 101 5537ft 146kts
26-Apr-20 16:49 34.291875 -118.907488 100 5538ft 145kts
26-Apr-20 16:50 34.285292 -118.859189 100 5538ft 145kts
26-Apr-20 16:51 34.278813 -118.811089 100 5540ft 144kts
26-Apr-20 16:52 34.272532 -118.763143 100 5541ft 144kts
26-Apr-20 16:53 34.266741 -118.715279 100 5542ft 143kts
26-Apr-20 16:54 34.261432 -118.667695 100 5520ft 142kts
26-Apr-20 16:55 34.256567 -118.620661 100 5519ft 139kts
26-Apr-20 16:56 34.252046 -118.574171 100 5517ft 137kts
26-Apr-20 16:57 34.248039 -118.530473 100 5173ft 113kts
26-Apr-20 16:58 34.244978 -118.496188 106 4650ft 95kts
26-Apr-20 16:59 34.240112 -118.465414 106 3973ft 95kts
26-Apr-20 17:00 34.235016 -118.433545 103 3145ft 97kts
26-Apr-20 17:01 34.232548 -118.406675 101 2427ft 74kts
26-Apr-20 17:02 34.231047 -118.382197 102 1870ft 69kts
26-Apr-20 17:03 34.222159 -118.363037 165 1206ft 65kts
26-Apr-20 17:04 34.206288 -118.358825 166 780ft 37kts
26-Apr-20 17:05 34.202808 -118.358790 256 780ft 0kts
26-Apr-20 17:06 34.202807 -118.358792 256 780ft 0kts
26-Apr-20 17:07 34.200805 -118.358429 168 780ft 14kts
26-Apr-20 17:08 34.199654 -118.359287 257 780ft 4kts
26-Apr-20 17:09 34.199636 -118.359394 259 780ft 0kts

Navigation Log

Ident Type
Flight plan parsing failed, navigation log unavailable